Hickman, TN (38567)

10:06 PM CDT on July 23, 2016 (GMT -0500)
Robyn Ln | | Change Station

Elev 604 ft 36.14 °N, 85.90 °W | Updated 3 minutes ago

Clear
Clear
74.5 °F
Feels Like 73 °F
N
0.9
Wind Variable Wind from North

Today
High -- | Low -- °F
--% Chance of Precip.
Yesterday
High -- | Low -- °F
Precip. -- in
Pressure 30.03 in
Visibility 10.0 miles
Clouds Clear
Heat Index 73 °F
Dew Point 71 °F
Humidity 89%
Rainfall Not available.
Snow Depth Not available.
5:44 AM 7:55 PM
Waning Gibbous, 80% visible
METAR KSRB 240255Z AUTO 17003KT 10SM CLR 24/22 A3003 RMK
Pressure 30.03 in
Visibility 10.0 miles
Clouds Clear
Heat Index 73 °F
Dew Point 71 °F
Humidity 89%
Rainfall Not available.
Snow Depth Not available.
5:44 AM 7:55 PM
Waning Gibbous, 80% visible
METAR KSRB 240255Z AUTO 17003KT 10SM CLR 24/22 A3003 RMK

10-Day Weather Forecast

Almanac

Astronomy

Jul. 23, 2016 Rise Set
Actual Time
Civil Twilight
Nautical Twilight
Astronomical Twilight
Moon
Length of Visible Light
Length of Day
Tomorrow will be .
, % of the Moon is Illuminated

Today's Extremes

State Highs State Lows

Community

WunderPhotos

Upload Photos

1,927,016 photos uploaded!

WunderBlog® & News

Nearby

Air Quality

  Air Quality AQ Index Pollutant
Not available.

Snow Depth

Station Depth Elevation

Earthquake Activity

City Distance Mag. Time & Date
Minimum magnitude displayed is 2.5.

Coastal Water Temperatures

Place Temperature

Stations

Nearby Weather Stations

Station Location Temp. Windchill Dew Point Humidity Wind Precip. Elev Updated Type
                   

Watches & Warnings

There are currently no watches in effect.